sensor_id;sensor_type;location;lat;lon;timestamp;P1;durP1;ratioP1;P2;durP2;ratioP2
27367;SDS011;14839;48.106;11.618;2023-04-21T04:02:09;1.23;;;1.13;;
27367;SDS011;14839;48.106;11.618;2023-04-21T04:04:35;0.37;;;0.37;;
27367;SDS011;14839;48.106;11.618;2023-04-21T04:07:00;1.40;;;1.27;;
27367;SDS011;14839;48.106;11.618;2023-04-21T04:09:26;0.60;;;0.60;;
27367;SDS011;14839;48.106;11.618;2023-04-21T04:11:52;0.20;;;0.20;;
27367;SDS011;14839;48.106;11.618;2023-04-21T04:14:17;1.30;;;1.07;;
27367;SDS011;14839;48.106;11.618;2023-04-21T04:16:43;2.43;;;2.23;;
27367;SDS011;14839;48.106;11.618;2023-04-21T04:19:09;0.53;;;0.53;;
27367;SDS011;14839;48.106;11.618;2023-04-21T04:21:35;2.00;;;0.90;;
27367;SDS011;14839;48.106;11.618;2023-04-21T04:24:01;1.50;;;1.33;;
27367;SDS011;14839;48.106;11.618;2023-04-21T04:26:27;1.17;;;0.73;;
27367;SDS011;14839;48.106;11.618;2023-04-21T04:28:53;1.50;;;1.23;;
27367;SDS011;14839;48.106;11.618;2023-04-21T04:31:20;0.77;;;0.70;;
27367;SDS011;14839;48.106;11.618;2023-04-21T04:33:49;0.93;;;0.80;;
27367;SDS011;14839;48.106;11.618;2023-04-21T04:36:15;0.30;;;0.30;;
27367;SDS011;14839;48.106;11.618;2023-04-21T04:38:41;1.33;;;1.23;;
27367;SDS011;14839;48.106;11.618;2023-04-21T04:41:06;1.27;;;0.87;;
27367;SDS011;14839;48.106;11.618;2023-04-21T04:43:33;1.67;;;1.37;;
27367;SDS011;14839;48.106;11.618;2023-04-21T04:46:01;1.63;;;1.23;;
27367;SDS011;14839;48.106;11.618;2023-04-21T04:48:27;2.77;;;2.00;;
27367;SDS011;14839;48.106;11.618;2023-04-21T04:50:53;6.00;;;1.93;;
27367;SDS011;14839;48.106;11.618;2023-04-21T04:53:18;1.33;;;0.90;;
27367;SDS011;14839;48.106;11.618;2023-04-21T04:55:44;1.33;;;0.87;;
27367;SDS011;14839;48.106;11.618;2023-04-21T04:58:11;0.90;;;0.60;;
27367;SDS011;14839;48.106;11.618;2023-04-21T05:00:36;0.67;;;0.67;;
27367;SDS011;14839;48.106;11.618;2023-04-21T05:03:02;1.63;;;0.70;;
27367;SDS011;14839;48.106;11.618;2023-04-21T05:05:28;1.33;;;0.80;;
27367;SDS011;14839;48.106;11.618;2023-04-21T05:07:54;0.83;;;0.53;;
27367;SDS011;14839;48.106;11.618;2023-04-21T05:10:19;2.40;;;1.10;;
27367;SDS011;14839;48.106;11.618;2023-04-21T05:12:45;0.83;;;0.63;;
27367;SDS011;14839;48.106;11.618;2023-04-21T05:15:11;0.67;;;0.67;;
27367;SDS011;14839;48.106;11.618;2023-04-21T05:17:36;2.37;;;0.93;;
27367;SDS011;14839;48.106;11.618;2023-04-21T05:20:05;1.13;;;1.03;;
27367;SDS011;14839;48.106;11.618;2023-04-21T05:22:35;2.50;;;1.43;;
27367;SDS011;14839;48.106;11.618;2023-04-21T05:25:04;1.33;;;0.80;;
27367;SDS011;14839;48.106;11.618;2023-04-21T05:27:30;3.47;;;1.40;;
27367;SDS011;14839;48.106;11.618;2023-04-21T05:30:01;1.13;;;0.87;;
27367;SDS011;14839;48.106;11.618;2023-04-21T05:32:30;1.27;;;0.93;;
27367;SDS011;14839;48.106;11.618;2023-04-21T05:34:55;1.00;;;1.00;;
27367;SDS011;14839;48.106;11.618;2023-04-21T05:37:22;1.73;;;1.50;;
27367;SDS011;14839;48.106;11.618;2023-04-21T05:39:49;0.70;;;0.70;;
27367;SDS011;14839;48.106;11.618;2023-04-21T05:42:15;2.10;;;1.60;;
27367;SDS011;14839;48.106;11.618;2023-04-21T05:44:42;0.80;;;0.80;;
27367;SDS011;14839;48.106;11.618;2023-04-21T05:47:08;1.00;;;0.87;;
27367;SDS011;14839;48.106;11.618;2023-04-21T05:49:33;0.40;;;0.40;;
27367;SDS011;14839;48.106;11.618;2023-04-21T05:51:59;1.90;;;1.37;;
27367;SDS011;14839;48.106;11.618;2023-04-21T05:54:25;4.50;;;2.87;;
27367;SDS011;14839;48.106;11.618;2023-04-21T05:56:50;1.13;;;0.83;;
27367;SDS011;14839;48.106;11.618;2023-04-21T05:59:16;1.20;;;0.90;;
27367;SDS011;14839;48.106;11.618;2023-04-21T06:01:42;1.80;;;1.70;;
27367;SDS011;14839;48.106;11.618;2023-04-21T06:04:08;4.40;;;2.20;;
27367;SDS011;14839;48.106;11.618;2023-04-21T06:06:33;4.77;;;2.27;;
27367;SDS011;14839;48.106;11.618;2023-04-21T06:08:59;2.33;;;2.13;;
27367;SDS011;14839;48.106;11.618;2023-04-21T06:11:25;4.87;;;2.50;;
27367;SDS011;14839;48.106;11.618;2023-04-21T06:13:51;2.60;;;1.37;;
27367;SDS011;14839;48.106;11.618;2023-04-21T06:16:22;1.77;;;0.80;;
27367;SDS011;14839;48.106;11.618;2023-04-21T06:18:47;2.03;;;1.33;;
27367;SDS011;14839;48.106;11.618;2023-04-21T06:21:13;0.83;;;0.83;;
27367;SDS011;14839;48.106;11.618;2023-04-21T06:23:39;1.50;;;1.40;;
27367;SDS011;14839;48.106;11.618;2023-04-21T06:26:06;1.27;;;1.17;;
27367;SDS011;14839;48.106;11.618;2023-04-21T06:28:32;1.20;;;1.10;;
27367;SDS011;14839;48.106;11.618;2023-04-21T06:30:59;0.70;;;0.70;;
27367;SDS011;14839;48.106;11.618;2023-04-21T06:33:25;1.33;;;1.10;;
27367;SDS011;14839;48.106;11.618;2023-04-21T06:35:51;1.90;;;0.83;;
27367;SDS011;14839;48.106;11.618;2023-04-21T06:38:17;1.23;;;1.00;;
27367;SDS011;14839;48.106;11.618;2023-04-21T06:40:43;0.93;;;0.90;;
27367;SDS011;14839;48.106;11.618;2023-04-21T06:43:09;2.20;;;1.47;;
27367;SDS011;14839;48.106;11.618;2023-04-21T06:45:34;0.80;;;0.80;;
27367;SDS011;14839;48.106;11.618;2023-04-21T06:48:00;1.00;;;0.90;;
27367;SDS011;14839;48.106;11.618;2023-04-21T06:50:25;1.27;;;1.17;;
27367;SDS011;14839;48.106;11.618;2023-04-21T06:52:51;1.50;;;1.40;;
27367;SDS011;14839;48.106;11.618;2023-04-21T06:55:16;1.03;;;1.03;;
27367;SDS011;14839;48.106;11.618;2023-04-21T06:57:42;0.73;;;0.73;;
27367;SDS011;14839;48.106;11.618;2023-04-21T07:00:08;1.63;;;1.50;;
27367;SDS011;14839;48.106;11.618;2023-04-21T07:02:34;1.03;;;0.83;;
27367;SDS011;14839;48.106;11.618;2023-04-21T07:05:00;2.17;;;1.60;;
27367;SDS011;14839;48.106;11.618;2023-04-21T07:07:28;1.53;;;1.17;;
27367;SDS011;14839;48.106;11.618;2023-04-21T07:09:54;2.57;;;1.67;;
27367;SDS011;14839;48.106;11.618;2023-04-21T07:12:19;1.37;;;0.90;;
27367;SDS011;14839;48.106;11.618;2023-04-21T07:14:45;1.77;;;1.03;;
27367;SDS011;14839;48.106;11.618;2023-04-21T07:17:11;2.17;;;1.10;;
27367;SDS011;14839;48.106;11.618;2023-04-21T07:19:36;5.13;;;2.10;;
27367;SDS011;14839;48.106;11.618;2023-04-21T07:22:03;1.50;;;0.93;;
27367;SDS011;14839;48.106;11.618;2023-04-21T07:24:29;1.27;;;1.17;;
27367;SDS011;14839;48.106;11.618;2023-04-21T07:26:54;0.43;;;0.43;;
27367;SDS011;14839;48.106;11.618;2023-04-21T07:29:20;0.93;;;0.83;;
27367;SDS011;14839;48.106;11.618;2023-04-21T07:31:45;1.27;;;1.17;;
27367;SDS011;14839;48.106;11.618;2023-04-21T07:34:12;1.60;;;0.93;;
27367;SDS011;14839;48.106;11.618;2023-04-21T07:36:38;0.87;;;0.67;;
27367;SDS011;14839;48.106;11.618;2023-04-21T07:39:03;1.03;;;0.80;;
27367;SDS011;14839;48.106;11.618;2023-04-21T07:41:29;0.73;;;0.73;;
27367;SDS011;14839;48.106;11.618;2023-04-21T07:43:54;1.00;;;0.90;;
27367;SDS011;14839;48.106;11.618;2023-04-21T07:46:20;1.00;;;0.87;;
27367;SDS011;14839;48.106;11.618;2023-04-21T07:48:53;1.33;;;1.03;;
27367;SDS011;14839;48.106;11.618;2023-04-21T07:51:20;2.13;;;1.13;;
27367;SDS011;14839;48.106;11.618;2023-04-21T07:53:45;1.47;;;0.90;;
27367;SDS011;14839;48.106;11.618;2023-04-21T07:56:11;1.43;;;0.80;;
27367;SDS011;14839;48.106;11.618;2023-04-21T07:58:37;3.30;;;0.50;;
27367;SDS011;14839;48.106;11.618;2023-04-21T08:01:02;0.60;;;0.60;;
27367;SDS011;14839;48.106;11.618;2023-04-21T08:03:28;0.97;;;0.87;;
27367;SDS011;14839;48.106;11.618;2023-04-21T08:05:53;1.90;;;0.77;;
27367;SDS011;14839;48.106;11.618;2023-04-21T08:08:19;2.13;;;1.07;;
27367;SDS011;14839;48.106;11.618;2023-04-21T08:10:45;3.57;;;1.50;;
27367;SDS011;14839;48.106;11.618;2023-04-21T08:13:11;1.03;;;1.00;;
27367;SDS011;14839;48.106;11.618;2023-04-21T08:15:37;0.70;;;0.67;;
27367;SDS011;14839;48.106;11.618;2023-04-21T08:18:02;1.13;;;0.60;;
27367;SDS011;14839;48.106;11.618;2023-04-21T08:20:28;1.07;;;0.90;;
27367;SDS011;14839;48.106;11.618;2023-04-21T08:22:54;0.40;;;0.40;;
27367;SDS011;14839;48.106;11.618;2023-04-21T08:25:19;1.30;;;1.00;;
27367;SDS011;14839;48.106;11.618;2023-04-21T08:27:45;1.20;;;0.73;;
27367;SDS011;14839;48.106;11.618;2023-04-21T08:30:11;1.87;;;1.33;;
27367;SDS011;14839;48.106;11.618;2023-04-21T08:32:37;1.53;;;1.17;;
27367;SDS011;14839;48.106;11.618;2023-04-21T08:35:02;1.37;;;0.97;;
27367;SDS011;14839;48.106;11.618;2023-04-21T08:37:28;1.37;;;1.03;;
27367;SDS011;14839;48.106;11.618;2023-04-21T08:39:54;2.03;;;1.73;;
27367;SDS011;14839;48.106;11.618;2023-04-21T08:42:20;2.17;;;1.50;;
27367;SDS011;14839;48.106;11.618;2023-04-21T08:44:46;1.20;;;0.87;;
27367;SDS011;14839;48.106;11.618;2023-04-21T08:47:12;1.47;;;1.13;;
27367;SDS011;14839;48.106;11.618;2023-04-21T08:49:39;1.20;;;1.10;;
27367;SDS011;14839;48.106;11.618;2023-04-21T08:52:05;0.80;;;0.73;;
27367;SDS011;14839;48.106;11.618;2023-04-21T08:54:31;0.93;;;0.60;;
27367;SDS011;14839;48.106;11.618;2023-04-21T08:56:57;1.57;;;0.97;;
27367;SDS011;14839;48.106;11.618;2023-04-21T08:59:23;1.60;;;0.93;;
27367;SDS011;14839;48.106;11.618;2023-04-21T09:04:45;0.83;;;0.77;;
27367;SDS011;14839;48.106;11.618;2023-04-21T09:07:29;1.13;;;0.93;;
27367;SDS011;14839;48.106;11.618;2023-04-21T09:09:56;1.90;;;1.37;;
27367;SDS011;14839;48.106;11.618;2023-04-21T09:12:23;1.43;;;0.97;;
27367;SDS011;14839;48.106;11.618;2023-04-21T09:14:48;2.00;;;1.27;;
27367;SDS011;14839;48.106;11.618;2023-04-21T09:17:15;2.40;;;1.47;;
27367;SDS011;14839;48.106;11.618;2023-04-21T09:19:42;0.57;;;0.57;;
27367;SDS011;14839;48.106;11.618;2023-04-21T09:22:08;0.63;;;0.63;;
27367;SDS011;14839;48.106;11.618;2023-04-21T09:24:43;1.93;;;1.30;;
27367;SDS011;14839;48.106;11.618;2023-04-21T09:27:13;1.90;;;1.10;;
27367;SDS011;14839;48.106;11.618;2023-04-21T09:29:44;1.27;;;0.80;;
27367;SDS011;14839;48.106;11.618;2023-04-21T09:32:15;0.70;;;0.60;;
27367;SDS011;14839;48.106;11.618;2023-04-21T09:34:44;0.67;;;0.60;;
27367;SDS011;14839;48.106;11.618;2023-04-21T09:37:11;0.90;;;0.90;;
27367;SDS011;14839;48.106;11.618;2023-04-21T09:39:38;2.30;;;1.27;;
27367;SDS011;14839;48.106;11.618;2023-04-21T09:42:03;0.63;;;0.47;;
27367;SDS011;14839;48.106;11.618;2023-04-21T09:44:29;1.03;;;0.93;;
27367;SDS011;14839;48.106;11.618;2023-04-21T09:47:01;1.77;;;0.80;;
27367;SDS011;14839;48.106;11.618;2023-04-21T09:49:29;0.50;;;0.50;;
27367;SDS011;14839;48.106;11.618;2023-04-21T09:51:59;0.57;;;0.57;;
27367;SDS011;14839;48.106;11.618;2023-04-21T09:54:32;0.43;;;0.43;;
27367;SDS011;14839;48.106;11.618;2023-04-21T09:57:03;0.70;;;0.63;;
27367;SDS011;14839;48.106;11.618;2023-04-21T09:59:37;1.03;;;0.73;;
27367;SDS011;14839;48.106;11.618;2023-04-21T10:02:09;2.87;;;0.90;;
27367;SDS011;14839;48.106;11.618;2023-04-21T10:04:36;0.80;;;0.77;;
27367;SDS011;14839;48.106;11.618;2023-04-21T10:07:05;1.77;;;1.17;;
27367;SDS011;14839;48.106;11.618;2023-04-21T10:09:41;1.90;;;0.73;;
27367;SDS011;14839;48.106;11.618;2023-04-21T10:12:10;1.03;;;1.00;;
27367;SDS011;14839;48.106;11.618;2023-04-21T10:14:37;1.13;;;1.03;;
27367;SDS011;14839;48.106;11.618;2023-04-21T10:17:04;1.77;;;1.50;;
27367;SDS011;14839;48.106;11.618;2023-04-21T10:19:34;1.43;;;1.33;;
27367;SDS011;14839;48.106;11.618;2023-04-21T10:22:07;2.60;;;1.63;;
27367;SDS011;14839;48.106;11.618;2023-04-21T10:24:37;2.33;;;1.53;;
27367;SDS011;14839;48.106;11.618;2023-04-21T10:27:04;1.77;;;1.40;;
27367;SDS011;14839;48.106;11.618;2023-04-21T10:29:31;1.13;;;0.93;;
27367;SDS011;14839;48.106;11.618;2023-04-21T10:31:58;1.50;;;1.37;;
27367;SDS011;14839;48.106;11.618;2023-04-21T10:34:28;4.07;;;1.60;;
27367;SDS011;14839;48.106;11.618;2023-04-21T10:39:36;2.83;;;1.30;;
27367;SDS011;14839;48.106;11.618;2023-04-21T10:42:17;1.33;;;1.10;;
27367;SDS011;14839;48.106;11.618;2023-04-21T10:50:11;2.13;;;1.70;;
27367;SDS011;14839;48.106;11.618;2023-04-21T10:53:07;2.10;;;0.90;;
27367;SDS011;14839;48.106;11.618;2023-04-21T10:55:35;1.03;;;0.90;;
27367;SDS011;14839;48.106;11.618;2023-04-21T10:58:02;1.40;;;1.20;;
27367;SDS011;14839;48.106;11.618;2023-04-21T11:00:29;2.07;;;1.17;;
27367;SDS011;14839;48.106;11.618;2023-04-21T11:03:02;1.47;;;1.03;;
27367;SDS011;14839;48.106;11.618;2023-04-21T11:08:04;2.57;;;1.20;;
27367;SDS011;14839;48.106;11.618;2023-04-21T11:10:39;1.27;;;0.93;;
27367;SDS011;14839;48.106;11.618;2023-04-21T11:13:15;1.57;;;1.30;;
27367;SDS011;14839;48.106;11.618;2023-04-21T11:15:41;1.63;;;1.43;;
27367;SDS011;14839;48.106;11.618;2023-04-21T11:18:31;2.00;;;1.60;;
27367;SDS011;14839;48.106;11.618;2023-04-21T11:23:40;1.23;;;1.13;;
27367;SDS011;14839;48.106;11.618;2023-04-21T11:26:06;1.33;;;1.23;;
27367;SDS011;14839;48.106;11.618;2023-04-21T11:28:32;1.27;;;1.17;;
27367;SDS011;14839;48.106;11.618;2023-04-21T11:30:57;1.10;;;0.90;;
27367;SDS011;14839;48.106;11.618;2023-04-21T11:33:23;1.40;;;1.30;;
27367;SDS011;14839;48.106;11.618;2023-04-21T11:35:49;1.90;;;0.90;;
27367;SDS011;14839;48.106;11.618;2023-04-21T11:38:15;0.63;;;0.63;;
27367;SDS011;14839;48.106;11.618;2023-04-21T11:40:43;1.27;;;1.00;;
27367;SDS011;14839;48.106;11.618;2023-04-21T11:43:10;0.87;;;0.73;;
27367;SDS011;14839;48.106;11.618;2023-04-21T11:45:36;0.97;;;0.90;;
27367;SDS011;14839;48.106;11.618;2023-04-21T11:48:12;0.90;;;0.70;;
27367;SDS011;14839;48.106;11.618;2023-04-21T11:50:39;1.50;;;0.63;;
27367;SDS011;14839;48.106;11.618;2023-04-21T11:53:10;1.30;;;0.73;;
27367;SDS011;14839;48.106;11.618;2023-04-21T11:55:37;1.77;;;0.40;;
27367;SDS011;14839;48.106;11.618;2023-04-21T11:58:06;0.87;;;0.63;;
27367;SDS011;14839;48.106;11.618;2023-04-21T12:00:32;1.27;;;0.90;;
27367;SDS011;14839;48.106;11.618;2023-04-21T12:02:57;0.80;;;0.53;;
27367;SDS011;14839;48.106;11.618;2023-04-21T12:05:23;0.80;;;0.77;;
27367;SDS011;14839;48.106;11.618;2023-04-21T12:07:49;0.40;;;0.40;;
27367;SDS011;14839;48.106;11.618;2023-04-21T12:10:17;1.00;;;0.40;;
27367;SDS011;14839;48.106;11.618;2023-04-21T12:12:44;0.80;;;0.80;;
27367;SDS011;14839;48.106;11.618;2023-04-21T12:15:11;0.67;;;0.50;;
27367;SDS011;14839;48.106;11.618;2023-04-21T12:17:45;0.70;;;0.63;;
27367;SDS011;14839;48.106;11.618;2023-04-21T12:20:12;1.63;;;0.90;;
27367;SDS011;14839;48.106;11.618;2023-04-21T12:22:40;0.87;;;0.83;;
27367;SDS011;14839;48.106;11.618;2023-04-21T12:25:06;1.57;;;0.73;;
27367;SDS011;14839;48.106;11.618;2023-04-21T12:27:33;2.10;;;0.80;;
27367;SDS011;14839;48.106;11.618;2023-04-21T12:29:58;1.00;;;0.60;;
27367;SDS011;14839;48.106;11.618;2023-04-21T12:32:25;1.40;;;0.70;;
27367;SDS011;14839;48.106;11.618;2023-04-21T12:34:50;0.80;;;0.60;;
27367;SDS011;14839;48.106;11.618;2023-04-21T12:37:17;0.77;;;0.50;;
27367;SDS011;14839;48.106;11.618;2023-04-21T12:39:43;0.23;;;0.23;;
27367;SDS011;14839;48.106;11.618;2023-04-21T12:42:19;0.50;;;0.50;;
27367;SDS011;14839;48.106;11.618;2023-04-21T12:45:04;0.60;;;0.40;;
27367;SDS011;14839;48.106;11.618;2023-04-21T12:47:30;0.67;;;0.63;;
27367;SDS011;14839;48.106;11.618;2023-04-21T12:50:05;2.20;;;0.57;;
27367;SDS011;14839;48.106;11.618;2023-04-21T12:52:31;0.97;;;0.67;;
27367;SDS011;14839;48.106;11.618;2023-04-21T12:54:57;0.80;;;0.40;;
27367;SDS011;14839;48.106;11.618;2023-04-21T12:57:22;0.40;;;0.37;;
27367;SDS011;14839;48.106;11.618;2023-04-21T12:59:48;0.30;;;0.30;;
27367;SDS011;14839;48.106;11.618;2023-04-21T13:02:13;0.60;;;0.50;;
27367;SDS011;14839;48.106;11.618;2023-04-21T13:04:39;0.30;;;0.30;;
27367;SDS011;14839;48.106;11.618;2023-04-21T13:07:06;0.60;;;0.47;;
27367;SDS011;14839;48.106;11.618;2023-04-21T13:09:32;0.53;;;0.43;;
27367;SDS011;14839;48.106;11.618;2023-04-21T13:11:58;0.60;;;0.60;;
27367;SDS011;14839;48.106;11.618;2023-04-21T13:14:23;0.40;;;0.40;;
27367;SDS011;14839;48.106;11.618;2023-04-21T13:16:49;0.57;;;0.50;;
27367;SDS011;14839;48.106;11.618;2023-04-21T13:19:15;0.30;;;0.27;;
27367;SDS011;14839;48.106;11.618;2023-04-21T13:21:40;0.60;;;0.50;;
27367;SDS011;14839;48.106;11.618;2023-04-21T13:24:06;0.60;;;0.60;;
27367;SDS011;14839;48.106;11.618;2023-04-21T13:26:32;0.50;;;0.40;;
27367;SDS011;14839;48.106;11.618;2023-04-21T13:28:59;0.47;;;0.47;;
27367;SDS011;14839;48.106;11.618;2023-04-21T13:31:25;2.60;;;0.60;;
27367;SDS011;14839;48.106;11.618;2023-04-21T13:33:50;0.40;;;0.40;;
27367;SDS011;14839;48.106;11.618;2023-04-21T13:36:16;0.40;;;0.40;;
27367;SDS011;14839;48.106;11.618;2023-04-21T13:38:42;0.80;;;0.50;;
27367;SDS011;14839;48.106;11.618;2023-04-21T13:41:08;0.40;;;0.40;;
27367;SDS011;14839;48.106;11.618;2023-04-21T13:43:34;0.50;;;0.50;;
27367;SDS011;14839;48.106;11.618;2023-04-21T13:46:00;0.20;;;0.20;;
27367;SDS011;14839;48.106;11.618;2023-04-21T13:48:25;0.40;;;0.30;;
27367;SDS011;14839;48.106;11.618;2023-04-21T13:50:54;0.40;;;0.40;;
27367;SDS011;14839;48.106;11.618;2023-04-21T13:53:20;0.43;;;0.43;;
27367;SDS011;14839;48.106;11.618;2023-04-21T13:55:45;0.83;;;0.43;;
27367;SDS011;14839;48.106;11.618;2023-04-21T13:58:12;0.83;;;0.50;;
27367;SDS011;14839;48.106;11.618;2023-04-21T14:00:39;2.00;;;0.33;;
27367;SDS011;14839;48.106;11.618;2023-04-21T14:03:05;0.40;;;0.40;;
27367;SDS011;14839;48.106;11.618;2023-04-21T14:05:31;0.20;;;0.10;;
27367;SDS011;14839;48.106;11.618;2023-04-21T14:07:57;0.67;;;0.50;;
27367;SDS011;14839;48.106;11.618;2023-04-21T14:10:23;0.30;;;0.30;;
27367;SDS011;14839;48.106;11.618;2023-04-21T14:12:48;0.57;;;0.57;;
27367;SDS011;14839;48.106;11.618;2023-04-21T14:15:14;0.30;;;0.30;;
27367;SDS011;14839;48.106;11.618;2023-04-21T14:17:40;1.07;;;0.50;;
27367;SDS011;14839;48.106;11.618;2023-04-21T14:20:06;0.33;;;0.30;;
27367;SDS011;14839;48.106;11.618;2023-04-21T14:22:33;0.57;;;0.50;;
27367;SDS011;14839;48.106;11.618;2023-04-21T14:24:59;0.30;;;0.30;;
27367;SDS011;14839;48.106;11.618;2023-04-21T14:27:25;0.70;;;0.40;;
27367;SDS011;14839;48.106;11.618;2023-04-21T14:29:50;0.77;;;0.57;;
27367;SDS011;14839;48.106;11.618;2023-04-21T14:32:16;1.17;;;0.70;;
27367;SDS011;14839;48.106;11.618;2023-04-21T14:34:44;0.23;;;0.23;;
27367;SDS011;14839;48.106;11.618;2023-04-21T14:37:10;0.63;;;0.30;;
27367;SDS011;14839;48.106;11.618;2023-04-21T14:39:36;0.57;;;0.50;;
27367;SDS011;14839;48.106;11.618;2023-04-21T14:42:01;0.30;;;0.30;;
27367;SDS011;14839;48.106;11.618;2023-04-21T14:44:27;0.50;;;0.33;;
27367;SDS011;14839;48.106;11.618;2023-04-21T14:46:53;0.30;;;0.30;;
27367;SDS011;14839;48.106;11.618;2023-04-21T14:49:19;0.70;;;0.60;;
27367;SDS011;14839;48.106;11.618;2023-04-21T14:51:45;0.60;;;0.33;;
27367;SDS011;14839;48.106;11.618;2023-04-21T14:54:13;1.23;;;0.33;;
27367;SDS011;14839;48.106;11.618;2023-04-21T14:56:39;0.30;;;0.30;;
27367;SDS011;14839;48.106;11.618;2023-04-21T14:59:05;0.53;;;0.50;;
27367;SDS011;14839;48.106;11.618;2023-04-21T15:01:31;0.50;;;0.50;;
27367;SDS011;14839;48.106;11.618;2023-04-21T15:03:57;0.60;;;0.40;;
27367;SDS011;14839;48.106;11.618;2023-04-21T15:06:23;0.30;;;0.30;;
27367;SDS011;14839;48.106;11.618;2023-04-21T15:08:50;0.50;;;0.50;;
27367;SDS011;14839;48.106;11.618;2023-04-21T15:11:17;0.30;;;0.20;;
27367;SDS011;14839;48.106;11.618;2023-04-21T15:13:42;1.00;;;0.40;;
27367;SDS011;14839;48.106;11.618;2023-04-21T15:16:08;1.40;;;0.82;;
27367;SDS011;14839;48.106;11.618;2023-04-21T15:18:34;0.53;;;0.40;;
27367;SDS011;14839;48.106;11.618;2023-04-21T15:20:59;0.60;;;0.57;;
27367;SDS011;14839;48.106;11.618;2023-04-21T15:23:25;0.40;;;0.40;;
27367;SDS011;14839;48.106;11.618;2023-04-21T15:25:51;0.30;;;0.30;;
27367;SDS011;14839;48.106;11.618;2023-04-21T15:28:17;0.40;;;0.20;;
27367;SDS011;14839;48.106;11.618;2023-04-21T15:30:42;0.57;;;0.50;;
27367;SDS011;14839;48.106;11.618;2023-04-21T15:33:08;0.33;;;0.30;;
27367;SDS011;14839;48.106;11.618;2023-04-21T15:35:35;0.20;;;0.20;;
27367;SDS011;14839;48.106;11.618;2023-04-21T15:38:01;0.40;;;0.40;;
27367;SDS011;14839;48.106;11.618;2023-04-21T15:40:26;0.20;;;0.20;;
27367;SDS011;14839;48.106;11.618;2023-04-21T15:42:52;0.30;;;0.30;;
27367;SDS011;14839;48.106;11.618;2023-04-21T15:45:18;0.50;;;0.40;;
27367;SDS011;14839;48.106;11.618;2023-04-21T15:47:43;0.50;;;0.50;;
27367;SDS011;14839;48.106;11.618;2023-04-21T15:50:09;0.67;;;0.53;;
27367;SDS011;14839;48.106;11.618;2023-04-21T15:52:35;0.83;;;0.60;;
27367;SDS011;14839;48.106;11.618;2023-04-21T15:55:07;0.53;;;0.37;;
27367;SDS011;14839;48.106;11.618;2023-04-21T15:57:35;0.43;;;0.20;;
27367;SDS011;14839;48.106;11.618;2023-04-21T16:00:01;0.20;;;0.20;;
27367;SDS011;14839;48.106;11.618;2023-04-21T16:02:27;0.47;;;0.40;;
27367;SDS011;14839;48.106;11.618;2023-04-21T16:04:52;0.83;;;0.50;;
27367;SDS011;14839;48.106;11.618;2023-04-21T16:07:18;0.37;;;0.37;;
27367;SDS011;14839;48.106;11.618;2023-04-21T16:09:44;0.47;;;0.43;;
27367;SDS011;14839;48.106;11.618;2023-04-21T16:12:10;1.93;;;0.37;;
27367;SDS011;14839;48.106;11.618;2023-04-21T16:14:35;0.30;;;0.20;;
27367;SDS011;14839;48.106;11.618;2023-04-21T16:17:02;0.37;;;0.37;;
27367;SDS011;14839;48.106;11.618;2023-04-21T16:19:28;0.20;;;0.20;;
27367;SDS011;14839;48.106;11.618;2023-04-21T16:21:54;0.73;;;0.47;;
27367;SDS011;14839;48.106;11.618;2023-04-21T16:24:20;0.30;;;0.30;;
27367;SDS011;14839;48.106;11.618;2023-04-21T16:26:46;0.20;;;0.20;;
27367;SDS011;14839;48.106;11.618;2023-04-21T16:29:12;0.33;;;0.33;;
27367;SDS011;14839;48.106;11.618;2023-04-21T16:31:37;0.50;;;0.40;;
27367;SDS011;14839;48.106;11.618;2023-04-21T16:34:03;0.40;;;0.37;;
27367;SDS011;14839;48.106;11.618;2023-04-21T16:36:29;0.33;;;0.27;;
27367;SDS011;14839;48.106;11.618;2023-04-21T16:38:56;0.40;;;0.40;;
27367;SDS011;14839;48.106;11.618;2023-04-21T16:41:22;0.40;;;0.40;;
27367;SDS011;14839;48.106;11.618;2023-04-21T16:43:48;0.20;;;0.20;;
27367;SDS011;14839;48.106;11.618;2023-04-21T16:46:13;0.20;;;0.20;;
27367;SDS011;14839;48.106;11.618;2023-04-21T16:48:39;0.50;;;0.20;;
27367;SDS011;14839;48.106;11.618;2023-04-21T16:51:05;0.40;;;0.30;;
27367;SDS011;14839;48.106;11.618;2023-04-21T16:53:31;0.27;;;0.27;;
27367;SDS011;14839;48.106;11.618;2023-04-21T16:55:57;0.47;;;0.27;;
27367;SDS011;14839;48.106;11.618;2023-04-21T16:58:23;0.37;;;0.33;;
27367;SDS011;14839;48.106;11.618;2023-04-21T17:00:50;0.30;;;0.30;;
27367;SDS011;14839;48.106;11.618;2023-04-21T17:03:16;0.87;;;0.50;;
27367;SDS011;14839;48.106;11.618;2023-04-21T17:05:41;0.77;;;0.30;;
27367;SDS011;14839;48.106;11.618;2023-04-21T17:08:07;0.97;;;0.63;;
27367;SDS011;14839;48.106;11.618;2023-04-21T17:10:32;0.73;;;0.50;;
27367;SDS011;14839;48.106;11.618;2023-04-21T17:12:58;0.23;;;0.23;;
27367;SDS011;14839;48.106;11.618;2023-04-21T17:15:24;0.40;;;0.40;;
27367;SDS011;14839;48.106;11.618;2023-04-21T17:17:49;0.70;;;0.50;;
27367;SDS011;14839;48.106;11.618;2023-04-21T17:20:15;0.40;;;0.40;;
27367;SDS011;14839;48.106;11.618;2023-04-21T17:22:41;0.40;;;0.37;;
27367;SDS011;14839;48.106;11.618;2023-04-21T17:25:07;0.77;;;0.53;;
27367;SDS011;14839;48.106;11.618;2023-04-21T17:27:34;0.67;;;0.67;;
27367;SDS011;14839;48.106;11.618;2023-04-21T17:30:01;0.40;;;0.40;;
27367;SDS011;14839;48.106;11.618;2023-04-21T17:32:28;0.30;;;0.30;;
27367;SDS011;14839;48.106;11.618;2023-04-21T17:34:53;0.30;;;0.30;;
27367;SDS011;14839;48.106;11.618;2023-04-21T17:37:19;0.77;;;0.40;;
27367;SDS011;14839;48.106;11.618;2023-04-21T17:39:45;0.30;;;0.30;;
27367;SDS011;14839;48.106;11.618;2023-04-21T17:42:10;0.37;;;0.33;;
27367;SDS011;14839;48.106;11.618;2023-04-21T17:44:36;0.30;;;0.30;;
27367;SDS011;14839;48.106;11.618;2023-04-21T17:47:03;0.20;;;0.20;;
27367;SDS011;14839;48.106;11.618;2023-04-21T17:49:32;0.50;;;0.37;;
27367;SDS011;14839;48.106;11.618;2023-04-21T17:51:58;0.60;;;0.50;;
27367;SDS011;14839;48.106;11.618;2023-04-21T17:54:24;0.67;;;0.50;;
27367;SDS011;14839;48.106;11.618;2023-04-21T17:56:50;0.63;;;0.53;;
27367;SDS011;14839;48.106;11.618;2023-04-21T17:59:15;0.40;;;0.40;;
27367;SDS011;14839;48.106;11.618;2023-04-21T18:01:41;0.60;;;0.50;;
27367;SDS011;14839;48.106;11.618;2023-04-21T18:04:07;0.60;;;0.60;;
27367;SDS011;14839;48.106;11.618;2023-04-21T18:06:32;0.87;;;0.57;;
27367;SDS011;14839;48.106;11.618;2023-04-21T18:08:58;1.03;;;0.50;;
27367;SDS011;14839;48.106;11.618;2023-04-21T18:11:24;0.33;;;0.33;;
27367;SDS011;14839;48.106;11.618;2023-04-21T18:13:50;0.50;;;0.50;;
27367;SDS011;14839;48.106;11.618;2023-04-21T18:16:15;0.60;;;0.50;;
27367;SDS011;14839;48.106;11.618;2023-04-21T18:18:41;0.50;;;0.50;;
27367;SDS011;14839;48.106;11.618;2023-04-21T18:21:07;0.30;;;0.20;;
27367;SDS011;14839;48.106;11.618;2023-04-21T18:23:33;0.47;;;0.47;;
27367;SDS011;14839;48.106;11.618;2023-04-21T18:25:58;0.40;;;0.40;;
27367;SDS011;14839;48.106;11.618;2023-04-21T18:28:24;0.87;;;0.40;;
27367;SDS011;14839;48.106;11.618;2023-04-21T18:30:50;1.43;;;0.30;;
27367;SDS011;14839;48.106;11.618;2023-04-21T18:33:16;0.60;;;0.60;;
27367;SDS011;14839;48.106;11.618;2023-04-21T18:35:42;0.83;;;0.50;;
27367;SDS011;14839;48.106;11.618;2023-04-21T18:38:08;0.27;;;0.27;;
27367;SDS011;14839;48.106;11.618;2023-04-21T18:40:35;0.40;;;0.40;;
27367;SDS011;14839;48.106;11.618;2023-04-21T18:43:02;0.40;;;0.40;;
27367;SDS011;14839;48.106;11.618;2023-04-21T18:45:28;0.30;;;0.30;;
27367;SDS011;14839;48.106;11.618;2023-04-21T18:47:54;0.70;;;0.40;;